sensor_id;sensor_type;location;lat;lon;timestamp;pressure;altitude;pressure_sealevel;temperature;humidity
31239;BME280;17871;31.584;74.450;2023-07-09T00:00:17;97423.88;;;26.71;100.00
31239;BME280;17871;31.584;74.450;2023-07-09T00:02:48;97418.47;;;26.62;100.00
31239;BME280;17871;31.584;74.450;2023-07-09T00:05:19;97407.75;;;26.41;100.00
31239;BME280;17871;31.584;74.450;2023-07-09T00:07:51;97410.84;;;26.22;100.00
31239;BME280;17871;31.584;74.450;2023-07-09T00:10:22;97401.69;;;26.41;100.00
31239;BME280;17871;31.584;74.450;2023-07-09T00:12:52;97399.09;;;26.28;100.00
31239;BME280;17871;31.584;74.450;2023-07-09T00:15:26;97406.09;;;26.40;100.00
31239;BME280;17871;31.584;74.450;2023-07-09T00:17:57;97406.63;;;26.33;100.00
31239;BME280;17871;31.584;74.450;2023-07-09T00:20:32;97411.44;;;26.39;100.00
31239;BME280;17871;31.584;74.450;2023-07-09T00:23:04;97415.59;;;26.41;100.00
31239;BME280;17871;31.584;74.450;2023-07-09T00:25:34;97414.94;;;26.26;100.00
31239;BME280;17871;31.584;74.450;2023-07-09T00:28:07;97419.22;;;26.51;100.00
31239;BME280;17871;31.584;74.450;2023-07-09T00:30:39;97415.91;;;26.49;100.00
31239;BME280;17871;31.584;74.450;2023-07-09T00:33:14;97417.44;;;26.75;100.00
31239;BME280;17871;31.584;74.450;2023-07-09T00:35:46;97413.59;;;26.45;100.00
31239;BME280;17871;31.584;74.450;2023-07-09T00:38:22;97416.19;;;26.57;100.00
31239;BME280;17871;31.584;74.450;2023-07-09T00:41:06;97415.00;;;26.61;100.00
31239;BME280;17871;31.584;74.450;2023-07-09T00:43:49;97407.56;;;26.44;100.00
31239;BME280;17871;31.584;74.450;2023-07-09T00:49:02;97415.34;;;26.57;100.00
31239;BME280;17871;31.584;74.450;2023-07-09T00:51:40;97412.56;;;26.47;100.00
31239;BME280;17871;31.584;74.450;2023-07-09T00:54:35;97409.28;;;26.56;100.00
31239;BME280;17871;31.584;74.450;2023-07-09T00:57:16;97411.34;;;26.40;100.00
31239;BME280;17871;31.584;74.450;2023-07-09T00:59:59;97418.44;;;26.38;100.00
31239;BME280;17871;31.584;74.450;2023-07-09T01:02:31;97421.81;;;26.64;100.00
31239;BME280;17871;31.584;74.450;2023-07-09T01:05:04;97428.72;;;26.65;100.00
31239;BME280;17871;31.584;74.450;2023-07-09T01:07:36;97432.84;;;26.56;100.00
31239;BME280;17871;31.584;74.450;2023-07-09T01:10:08;97439.97;;;26.78;100.00
31239;BME280;17871;31.584;74.450;2023-07-09T01:12:40;97438.66;;;26.72;100.00
31239;BME280;17871;31.584;74.450;2023-07-09T01:15:12;97433.34;;;26.38;100.00
31239;BME280;17871;31.584;74.450;2023-07-09T01:17:45;97445.28;;;26.65;100.00
31239;BME280;17871;31.584;74.450;2023-07-09T01:20:18;97452.38;;;26.76;100.00
31239;BME280;17871;31.584;74.450;2023-07-09T01:22:51;97456.28;;;26.70;100.00
31239;BME280;17871;31.584;74.450;2023-07-09T01:25:27;97456.84;;;26.63;100.00
31239;BME280;17871;31.584;74.450;2023-07-09T01:28:00;97462.78;;;26.65;100.00
31239;BME280;17871;31.584;74.450;2023-07-09T01:30:37;97470.50;;;26.79;100.00
31239;BME280;17871;31.584;74.450;2023-07-09T01:33:09;97468.41;;;26.84;100.00
31239;BME280;17871;31.584;74.450;2023-07-09T01:35:40;97465.56;;;26.87;100.00
31239;BME280;17871;31.584;74.450;2023-07-09T01:38:12;97467.84;;;26.92;100.00
31239;BME280;17871;31.584;74.450;2023-07-09T01:40:43;97471.66;;;26.75;100.00
31239;BME280;17871;31.584;74.450;2023-07-09T01:43:16;97472.25;;;26.91;100.00
31239;BME280;17871;31.584;74.450;2023-07-09T01:45:48;97468.50;;;27.06;100.00
31239;BME280;17871;31.584;74.450;2023-07-09T01:48:20;97470.63;;;27.01;100.00
31239;BME280;17871;31.584;74.450;2023-07-09T01:50:54;97461.97;;;27.12;100.00
31239;BME280;17871;31.584;74.450;2023-07-09T01:53:26;97472.56;;;27.10;100.00
31239;BME280;17871;31.584;74.450;2023-07-09T01:56:03;97469.97;;;27.21;100.00
31239;BME280;17871;31.584;74.450;2023-07-09T01:58:34;97470.47;;;26.92;100.00
31239;BME280;17871;31.584;74.450;2023-07-09T02:01:05;97472.78;;;27.07;100.00
31239;BME280;17871;31.584;74.450;2023-07-09T02:03:36;97464.03;;;27.19;100.00
31239;BME280;17871;31.584;74.450;2023-07-09T02:06:11;97470.50;;;27.26;100.00
31239;BME280;17871;31.584;74.450;2023-07-09T02:08:42;97479.44;;;27.59;100.00
31239;BME280;17871;31.584;74.450;2023-07-09T02:11:13;97481.34;;;27.68;100.00
31239;BME280;17871;31.584;74.450;2023-07-09T02:13:44;97482.91;;;27.81;100.00
31239;BME280;17871;31.584;74.450;2023-07-09T02:16:16;97494.13;;;27.72;100.00
31239;BME280;17871;31.584;74.450;2023-07-09T02:18:48;97484.94;;;27.78;100.00
31239;BME280;17871;31.584;74.450;2023-07-09T02:21:19;97481.47;;;28.00;100.00
31239;BME280;17871;31.584;74.450;2023-07-09T02:23:50;97472.41;;;28.04;100.00
31239;BME280;17871;31.584;74.450;2023-07-09T02:26:21;97470.41;;;28.07;100.00
31239;BME280;17871;31.584;74.450;2023-07-09T02:28:50;97475.31;;;28.12;100.00
31239;BME280;17871;31.584;74.450;2023-07-09T02:31:19;97483.44;;;28.09;100.00
31239;BME280;17871;31.584;74.450;2023-07-09T02:33:48;97491.28;;;27.98;100.00
31239;BME280;17871;31.584;74.450;2023-07-09T02:36:17;97484.84;;;28.02;100.00
31239;BME280;17871;31.584;74.450;2023-07-09T02:38:48;97481.03;;;28.28;100.00
31239;BME280;17871;31.584;74.450;2023-07-09T02:41:17;97484.63;;;28.27;100.00
31239;BME280;17871;31.584;74.450;2023-07-09T02:43:46;97478.03;;;28.32;100.00
31239;BME280;17871;31.584;74.450;2023-07-09T02:46:15;97479.72;;;28.33;100.00
31239;BME280;17871;31.584;74.450;2023-07-09T02:48:44;97484.38;;;28.41;100.00
31239;BME280;17871;31.584;74.450;2023-07-09T02:51:15;97478.28;;;28.29;100.00
31239;BME280;17871;31.584;74.450;2023-07-09T02:53:45;97479.38;;;28.27;100.00
31239;BME280;17871;31.584;74.450;2023-07-09T02:56:13;97480.41;;;28.47;100.00
31239;BME280;17871;31.584;74.450;2023-07-09T02:58:42;97491.28;;;28.53;100.00
31239;BME280;17871;31.584;74.450;2023-07-09T03:01:11;97488.88;;;28.61;100.00
31239;BME280;17871;31.584;74.450;2023-07-09T03:03:40;97496.25;;;28.78;100.00
31239;BME280;17871;31.584;74.450;2023-07-09T03:06:10;97492.50;;;28.92;100.00
31239;BME280;17871;31.584;74.450;2023-07-09T03:08:39;97481.03;;;28.93;100.00
31239;BME280;17871;31.584;74.450;2023-07-09T03:11:13;97499.69;;;29.22;100.00
31239;BME280;17871;31.584;74.450;2023-07-09T03:13:43;97502.13;;;29.14;100.00
31239;BME280;17871;31.584;74.450;2023-07-09T03:16:12;97500.38;;;29.03;100.00
31239;BME280;17871;31.584;74.450;2023-07-09T03:18:41;97504.16;;;28.78;100.00
31239;BME280;17871;31.584;74.450;2023-07-09T03:21:10;97508.09;;;28.84;100.00
31239;BME280;17871;31.584;74.450;2023-07-09T03:23:41;97509.13;;;28.93;100.00
31239;BME280;17871;31.584;74.450;2023-07-09T03:26:10;97506.41;;;28.83;100.00
31239;BME280;17871;31.584;74.450;2023-07-09T03:28:39;97497.94;;;28.79;100.00
31239;BME280;17871;31.584;74.450;2023-07-09T03:31:08;97509.13;;;29.04;100.00
31239;BME280;17871;31.584;74.450;2023-07-09T03:33:37;97515.81;;;29.08;100.00
31239;BME280;17871;31.584;74.450;2023-07-09T03:36:06;97515.81;;;28.97;100.00
31239;BME280;17871;31.584;74.450;2023-07-09T03:38:35;97521.75;;;29.10;100.00
31239;BME280;17871;31.584;74.450;2023-07-09T03:41:04;97515.41;;;28.80;100.00
31239;BME280;17871;31.584;74.450;2023-07-09T03:43:34;97528.72;;;29.00;100.00
31239;BME280;17871;31.584;74.450;2023-07-09T03:46:03;97527.63;;;28.70;100.00
31239;BME280;17871;31.584;74.450;2023-07-09T03:48:32;97538.81;;;28.83;100.00
31239;BME280;17871;31.584;74.450;2023-07-09T03:51:02;97540.69;;;29.04;100.00
31239;BME280;17871;31.584;74.450;2023-07-09T03:53:31;97543.06;;;29.07;100.00
31239;BME280;17871;31.584;74.450;2023-07-09T03:56:00;97542.13;;;28.97;100.00
31239;BME280;17871;31.584;74.450;2023-07-09T03:58:29;97533.41;;;28.96;100.00
31239;BME280;17871;31.584;74.450;2023-07-09T04:00:58;97540.94;;;29.01;100.00
31239;BME280;17871;31.584;74.450;2023-07-09T04:03:27;97548.34;;;29.07;100.00
31239;BME280;17871;31.584;74.450;2023-07-09T04:05:56;97540.16;;;29.21;100.00
31239;BME280;17871;31.584;74.450;2023-07-09T04:08:25;97551.41;;;29.12;100.00
31239;BME280;17871;31.584;74.450;2023-07-09T04:10:58;97549.50;;;29.14;100.00
31239;BME280;17871;31.584;74.450;2023-07-09T04:13:28;97562.63;;;29.25;100.00
31239;BME280;17871;31.584;74.450;2023-07-09T04:15:57;97563.63;;;29.13;100.00
31239;BME280;17871;31.584;74.450;2023-07-09T04:18:26;97565.28;;;29.25;100.00
31239;BME280;17871;31.584;74.450;2023-07-09T04:20:55;97559.53;;;29.20;100.00
31239;BME280;17871;31.584;74.450;2023-07-09T04:23:24;97566.22;;;29.24;100.00
31239;BME280;17871;31.584;74.450;2023-07-09T04:25:53;97567.09;;;29.02;100.00
31239;BME280;17871;31.584;74.450;2023-07-09T04:28:22;97567.25;;;29.01;100.00
31239;BME280;17871;31.584;74.450;2023-07-09T04:30:51;97567.06;;;28.70;100.00
31239;BME280;17871;31.584;74.450;2023-07-09T04:33:20;97567.28;;;28.78;100.00
31239;BME280;17871;31.584;74.450;2023-07-09T04:35:50;97564.63;;;28.90;100.00
31239;BME280;17871;31.584;74.450;2023-07-09T04:38:19;97564.19;;;28.73;100.00
31239;BME280;17871;31.584;74.450;2023-07-09T04:40:48;97559.28;;;28.80;100.00
31239;BME280;17871;31.584;74.450;2023-07-09T04:43:17;97558.34;;;28.70;100.00
31239;BME280;17871;31.584;74.450;2023-07-09T04:45:47;97564.03;;;28.64;100.00
31239;BME280;17871;31.584;74.450;2023-07-09T04:48:16;97562.94;;;29.00;100.00
31239;BME280;17871;31.584;74.450;2023-07-09T04:50:45;97557.41;;;29.03;100.00
31239;BME280;17871;31.584;74.450;2023-07-09T04:53:18;97554.09;;;29.01;100.00
31239;BME280;17871;31.584;74.450;2023-07-09T04:55:47;97569.81;;;29.12;100.00
31239;BME280;17871;31.584;74.450;2023-07-09T04:58:18;97575.56;;;29.28;100.00
31239;BME280;17871;31.584;74.450;2023-07-09T05:00:47;97570.19;;;29.29;100.00
31239;BME280;17871;31.584;74.450;2023-07-09T05:03:16;97571.59;;;29.33;100.00
31239;BME280;17871;31.584;74.450;2023-07-09T05:05:46;97573.81;;;29.49;100.00
31239;BME280;17871;31.584;74.450;2023-07-09T05:08:15;97573.09;;;29.47;100.00
31239;BME280;17871;31.584;74.450;2023-07-09T05:10:50;97574.47;;;29.62;100.00
31239;BME280;17871;31.584;74.450;2023-07-09T05:13:19;97574.50;;;29.30;100.00
31239;BME280;17871;31.584;74.450;2023-07-09T05:15:49;97574.34;;;29.32;100.00
31239;BME280;17871;31.584;74.450;2023-07-09T05:18:19;97575.31;;;29.20;100.00
31239;BME280;17871;31.584;74.450;2023-07-09T05:20:48;97578.50;;;29.34;100.00
31239;BME280;17871;31.584;74.450;2023-07-09T05:23:17;97581.41;;;29.31;100.00
31239;BME280;17871;31.584;74.450;2023-07-09T05:25:46;97584.44;;;29.27;100.00
31239;BME280;17871;31.584;74.450;2023-07-09T05:28:15;97583.91;;;29.33;100.00
31239;BME280;17871;31.584;74.450;2023-07-09T05:30:44;97592.28;;;29.38;100.00
31239;BME280;17871;31.584;74.450;2023-07-09T05:33:13;97580.00;;;29.16;100.00
31239;BME280;17871;31.584;74.450;2023-07-09T05:35:42;97580.50;;;28.99;100.00
31239;BME280;17871;31.584;74.450;2023-07-09T05:38:13;97574.22;;;29.33;100.00
31239;BME280;17871;31.584;74.450;2023-07-09T05:40:43;97573.06;;;29.15;100.00
31239;BME280;17871;31.584;74.450;2023-07-09T05:43:12;97570.72;;;29.01;100.00
31239;BME280;17871;31.584;74.450;2023-07-09T05:45:41;97568.78;;;29.14;100.00
31239;BME280;17871;31.584;74.450;2023-07-09T05:48:10;97564.91;;;29.18;100.00
31239;BME280;17871;31.584;74.450;2023-07-09T05:50:39;97568.28;;;29.09;100.00
31239;BME280;17871;31.584;74.450;2023-07-09T05:53:07;97561.22;;;29.21;100.00
31239;BME280;17871;31.584;74.450;2023-07-09T05:55:37;97564.53;;;29.23;100.00
31239;BME280;17871;31.584;74.450;2023-07-09T05:58:06;97556.16;;;29.18;100.00
31239;BME280;17871;31.584;74.450;2023-07-09T06:00:35;97561.56;;;29.27;100.00
31239;BME280;17871;31.584;74.450;2023-07-09T06:03:06;97562.72;;;29.34;100.00
31239;BME280;17871;31.584;74.450;2023-07-09T06:05:36;97561.66;;;29.37;100.00
31239;BME280;17871;31.584;74.450;2023-07-09T06:08:05;97572.00;;;29.50;100.00
31239;BME280;17871;31.584;74.450;2023-07-09T06:10:34;97568.47;;;29.40;100.00
31239;BME280;17871;31.584;74.450;2023-07-09T06:13:03;97573.34;;;29.44;100.00
31239;BME280;17871;31.584;74.450;2023-07-09T06:15:32;97567.88;;;29.36;100.00
31239;BME280;17871;31.584;74.450;2023-07-09T06:18:01;97569.09;;;29.32;100.00
31239;BME280;17871;31.584;74.450;2023-07-09T06:20:31;97572.84;;;29.50;100.00
31239;BME280;17871;31.584;74.450;2023-07-09T06:22:59;97567.84;;;29.47;100.00
31239;BME280;17871;31.584;74.450;2023-07-09T06:25:29;97567.59;;;29.50;100.00
31239;BME280;17871;31.584;74.450;2023-07-09T06:27:58;97572.59;;;29.53;100.00
31239;BME280;17871;31.584;74.450;2023-07-09T06:30:27;97564.81;;;29.52;100.00
31239;BME280;17871;31.584;74.450;2023-07-09T06:32:56;97560.63;;;29.49;100.00
31239;BME280;17871;31.584;74.450;2023-07-09T06:35:25;97576.19;;;29.52;100.00
31239;BME280;17871;31.584;74.450;2023-07-09T06:37:54;97569.31;;;29.61;100.00
31239;BME280;17871;31.584;74.450;2023-07-09T06:40:23;97562.25;;;29.61;100.00
31239;BME280;17871;31.584;74.450;2023-07-09T06:42:52;97570.41;;;29.58;100.00
31239;BME280;17871;31.584;74.450;2023-07-09T06:45:26;97563.13;;;29.51;100.00
31239;BME280;17871;31.584;74.450;2023-07-09T06:47:55;97559.63;;;29.61;100.00
31239;BME280;17871;31.584;74.450;2023-07-09T06:50:24;97553.47;;;29.72;100.00
31239;BME280;17871;31.584;74.450;2023-07-09T06:52:53;97560.44;;;29.62;100.00
31239;BME280;17871;31.584;74.450;2023-07-09T06:55:22;97562.44;;;29.49;100.00
31239;BME280;17871;31.584;74.450;2023-07-09T06:57:52;97554.28;;;29.52;100.00
31239;BME280;17871;31.584;74.450;2023-07-09T07:00:20;97558.44;;;29.54;100.00
31239;BME280;17871;31.584;74.450;2023-07-09T07:02:50;97560.63;;;29.49;100.00
31239;BME280;17871;31.584;74.450;2023-07-09T07:05:19;97570.66;;;29.55;100.00
31239;BME280;17871;31.584;74.450;2023-07-09T07:07:48;97566.75;;;29.50;100.00
31239;BME280;17871;31.584;74.450;2023-07-09T07:10:17;97566.34;;;29.54;100.00
31239;BME280;17871;31.584;74.450;2023-07-09T07:12:47;97573.91;;;29.48;100.00
31239;BME280;17871;31.584;74.450;2023-07-09T07:15:17;97571.00;;;29.30;100.00
31239;BME280;17871;31.584;74.450;2023-07-09T07:17:48;97576.97;;;29.32;100.00
31239;BME280;17871;31.584;74.450;2023-07-09T07:20:18;97578.13;;;29.50;100.00
31239;BME280;17871;31.584;74.450;2023-07-09T07:22:47;97577.91;;;29.42;100.00
31239;BME280;17871;31.584;74.450;2023-07-09T07:25:16;97578.16;;;29.39;100.00
31239;BME280;17871;31.584;74.450;2023-07-09T07:27:46;97574.44;;;29.42;100.00
31239;BME280;17871;31.584;74.450;2023-07-09T07:30:15;97570.25;;;29.39;100.00
31239;BME280;17871;31.584;74.450;2023-07-09T07:32:46;97573.22;;;29.46;100.00
31239;BME280;17871;31.584;74.450;2023-07-09T07:35:16;97580.88;;;29.49;100.00
31239;BME280;17871;31.584;74.450;2023-07-09T07:37:47;97573.16;;;29.25;100.00
31239;BME280;17871;31.584;74.450;2023-07-09T07:40:16;97574.06;;;29.46;100.00
31239;BME280;17871;31.584;74.450;2023-07-09T07:42:46;97580.78;;;29.39;100.00
31239;BME280;17871;31.584;74.450;2023-07-09T07:45:15;97582.00;;;29.35;100.00
31239;BME280;17871;31.584;74.450;2023-07-09T07:47:44;97578.47;;;29.46;100.00
31239;BME280;17871;31.584;74.450;2023-07-09T07:50:13;97580.25;;;29.56;100.00
31239;BME280;17871;31.584;74.450;2023-07-09T07:52:42;97583.19;;;29.63;100.00
31239;BME280;17871;31.584;74.450;2023-07-09T07:55:11;97580.94;;;29.58;100.00
31239;BME280;17871;31.584;74.450;2023-07-09T07:57:44;97579.91;;;29.50;100.00
31239;BME280;17871;31.584;74.450;2023-07-09T08:00:14;97584.88;;;29.64;100.00
31239;BME280;17871;31.584;74.450;2023-07-09T08:02:43;97578.00;;;29.72;100.00
31239;BME280;17871;31.584;74.450;2023-07-09T08:05:12;97582.69;;;29.69;100.00
31239;BME280;17871;31.584;74.450;2023-07-09T08:07:41;97574.16;;;29.97;100.00
31239;BME280;17871;31.584;74.450;2023-07-09T08:10:11;97577.13;;;30.04;100.00
31239;BME280;17871;31.584;74.450;2023-07-09T08:12:40;97567.09;;;29.98;100.00
31239;BME280;17871;31.584;74.450;2023-07-09T08:15:09;97573.06;;;30.20;100.00
31239;BME280;17871;31.584;74.450;2023-07-09T08:17:39;97556.81;;;30.15;100.00
31239;BME280;17871;31.584;74.450;2023-07-09T08:20:08;97560.88;;;29.99;100.00
31239;BME280;17871;31.584;74.450;2023-07-09T08:22:37;97567.50;;;29.93;100.00
31239;BME280;17871;31.584;74.450;2023-07-09T08:25:07;97567.00;;;30.29;100.00
31239;BME280;17871;31.584;74.450;2023-07-09T08:27:36;97568.47;;;30.43;100.00
31239;BME280;17871;31.584;74.450;2023-07-09T08:30:06;97558.59;;;30.66;100.00
31239;BME280;17871;31.584;74.450;2023-07-09T08:32:35;97557.19;;;30.71;100.00
31239;BME280;17871;31.584;74.450;2023-07-09T08:35:04;97553.19;;;30.86;99.75
31239;BME280;17871;31.584;74.450;2023-07-09T08:37:38;97553.00;;;31.09;98.72
31239;BME280;17871;31.584;74.450;2023-07-09T08:40:13;97551.06;;;31.11;98.91
31239;BME280;17871;31.584;74.450;2023-07-09T08:42:44;97544.38;;;31.26;99.16
31239;BME280;17871;31.584;74.450;2023-07-09T08:48:13;97535.91;;;31.80;97.32
31239;BME280;17871;31.584;74.450;2023-07-09T08:50:51;97526.03;;;31.72;98.26
31239;BME280;17871;31.584;74.450;2023-07-09T08:53:48;97532.28;;;31.71;97.09
31239;BME280;17871;31.584;74.450;2023-07-09T08:56:19;97520.38;;;31.67;96.83
31239;BME280;17871;31.584;74.450;2023-07-09T08:58:50;97526.41;;;32.06;96.03
31239;BME280;17871;31.584;74.450;2023-07-09T09:01:24;97523.63;;;31.98;94.13
31239;BME280;17871;31.584;74.450;2023-07-09T09:03:59;97520.13;;;32.17;93.27
31239;BME280;17871;31.584;74.450;2023-07-09T09:06:31;97515.44;;;32.38;93.17
31239;BME280;17871;31.584;74.450;2023-07-09T09:14:59;97514.22;;;32.32;92.78
31239;BME280;17871;31.584;74.450;2023-07-09T09:17:32;97506.56;;;32.29;92.46
31239;BME280;17871;31.584;74.450;2023-07-09T09:20:06;97511.56;;;32.32;93.13
31239;BME280;17871;31.584;74.450;2023-07-09T09:23:00;97492.09;;;32.51;91.54
31239;BME280;17871;31.584;74.450;2023-07-09T09:25:42;97497.81;;;32.56;90.08
31239;BME280;17871;31.584;74.450;2023-07-09T09:28:15;97499.88;;;32.62;89.47
31239;BME280;17871;31.584;74.450;2023-07-09T09:30:44;97486.97;;;32.59;89.93
31239;BME280;17871;31.584;74.450;2023-07-09T09:33:16;97495.28;;;32.64;90.23
31239;BME280;17871;31.584;74.450;2023-07-09T09:35:46;97494.63;;;32.53;90.50
31239;BME280;17871;31.584;74.450;2023-07-09T09:38:21;97493.50;;;32.82;91.50
31239;BME280;17871;31.584;74.450;2023-07-09T09:40:59;97494.56;;;32.89;90.00
31239;BME280;17871;31.584;74.450;2023-07-09T09:43:33;97492.72;;;32.90;91.61
31239;BME280;17871;31.584;74.450;2023-07-09T09:46:06;97495.91;;;32.94;91.61
31239;BME280;17871;31.584;74.450;2023-07-09T09:48:37;97479.66;;;32.88;89.17
31239;BME280;17871;31.584;74.450;2023-07-09T09:51:05;97482.22;;;32.98;91.57
31239;BME280;17871;31.584;74.450;2023-07-09T09:53:39;97483.91;;;33.17;91.54
31239;BME280;17871;31.584;74.450;2023-07-09T09:56:30;97475.44;;;33.31;90.15
31239;BME280;17871;31.584;74.450;2023-07-09T09:59:00;97482.25;;;33.33;92.25
31239;BME280;17871;31.584;74.450;2023-07-09T10:01:33;97479.78;;;32.87;90.41
31239;BME280;17871;31.584;74.450;2023-07-09T10:04:08;97470.47;;;32.65;90.78
31239;BME280;17871;31.584;74.450;2023-07-09T10:06:42;97483.56;;;33.12;91.16
31239;BME280;17871;31.584;74.450;2023-07-09T10:30:41;97473.03;;;32.30;97.35
31239;BME280;17871;31.584;74.450;2023-07-09T10:33:26;97475.19;;;32.17;96.58
31239;BME280;17871;31.584;74.450;2023-07-09T10:36:21;97472.91;;;32.22;96.47
31239;BME280;17871;31.584;74.450;2023-07-09T10:39:55;97472.13;;;32.12;97.69
31239;BME280;17871;31.584;74.450;2023-07-09T10:42:00;97456.44;;;32.01;98.26
31239;BME280;17871;31.584;74.450;2023-07-09T10:44:34;97465.63;;;31.97;98.76
31239;BME280;17871;31.584;74.450;2023-07-09T10:47:09;97456.25;;;32.02;98.20
31239;BME280;17871;31.584;74.450;2023-07-09T10:49:42;97457.28;;;31.92;98.66
31239;BME280;17871;31.584;74.450;2023-07-09T10:57:25;97441.53;;;31.63;99.43
31239;BME280;17871;31.584;74.450;2023-07-09T10:59:58;97444.84;;;31.74;100.00
31239;BME280;17871;31.584;74.450;2023-07-09T11:02:30;97434.94;;;31.76;100.00
31239;BME280;17871;31.584;74.450;2023-07-09T11:05:03;97444.19;;;31.53;100.00
31239;BME280;17871;31.584;74.450;2023-07-09T11:10:29;97434.59;;;31.52;99.26
31239;BME280;17871;31.584;74.450;2023-07-09T11:13:16;97430.19;;;31.80;99.60
31239;BME280;17871;31.584;74.450;2023-07-09T11:15:48;97425.72;;;31.90;98.80
31239;BME280;17871;31.584;74.450;2023-07-09T11:18:33;97434.94;;;31.76;98.58
31239;BME280;17871;31.584;74.450;2023-07-09T11:21:14;97424.13;;;31.70;98.57
31239;BME280;17871;31.584;74.450;2023-07-09T11:23:49;97425.53;;;31.64;98.58
31239;BME280;17871;31.584;74.450;2023-07-09T11:26:30;97436.19;;;31.72;98.64
31239;BME280;17871;31.584;74.450;2023-07-09T11:31:38;97421.06;;;31.74;97.94
31239;BME280;17871;31.584;74.450;2023-07-09T11:34:16;97424.25;;;31.78;97.55
31239;BME280;17871;31.584;74.450;2023-07-09T11:37:08;97429.00;;;32.02;96.84
31239;BME280;17871;31.584;74.450;2023-07-09T11:42:32;97423.63;;;32.21;96.75
31239;BME280;17871;31.584;74.450;2023-07-09T11:50:29;97432.16;;;31.68;98.22
31239;BME280;17871;31.584;74.450;2023-07-09T11:53:04;97420.81;;;31.58;98.90
31239;BME280;17871;31.584;74.450;2023-07-09T11:55:45;97417.16;;;31.69;98.54
31239;BME280;17871;31.584;74.450;2023-07-09T11:58:18;97423.41;;;31.77;98.35
31239;BME280;17871;31.584;74.450;2023-07-09T12:00:50;97420.06;;;31.75;99.14
31239;BME280;17871;31.584;74.450;2023-07-09T12:06:19;97420.75;;;31.77;98.68
31239;BME280;17871;31.584;74.450;2023-07-09T12:08:50;97418.88;;;31.60;99.51
31239;BME280;17871;31.584;74.450;2023-07-09T12:11:26;97427.75;;;31.59;98.60
31239;BME280;17871;31.584;74.450;2023-07-09T12:14:01;97422.91;;;31.64;99.02
31239;BME280;17871;31.584;74.450;2023-07-09T12:16:36;97424.63;;;31.83;99.52
31239;BME280;17871;31.584;74.450;2023-07-09T12:19:10;97426.88;;;31.78;98.58
31239;BME280;17871;31.584;74.450;2023-07-09T12:21:42;97426.88;;;31.68;99.09
31239;BME280;17871;31.584;74.450;2023-07-09T12:24:35;97428.84;;;31.66;99.73
31239;BME280;17871;31.584;74.450;2023-07-09T12:27:22;97427.38;;;31.54;99.57
31239;BME280;17871;31.584;74.450;2023-07-09T12:29:55;97425.97;;;31.50;100.00
31239;BME280;17871;31.584;74.450;2023-07-09T12:32:25;97438.31;;;31.59;99.26
31239;BME280;17871;31.584;74.450;2023-07-09T12:34:56;97430.81;;;31.45;99.95
31239;BME280;17871;31.584;74.450;2023-07-09T12:37:28;97436.94;;;31.46;100.00
31239;BME280;17871;31.584;74.450;2023-07-09T12:40:00;97431.66;;;31.36;100.00
31239;BME280;17871;31.584;74.450;2023-07-09T12:42:33;97434.75;;;31.31;100.00
31239;BME280;17871;31.584;74.450;2023-07-09T12:45:02;97438.94;;;31.24;100.00
31239;BME280;17871;31.584;74.450;2023-07-09T12:47:33;97439.78;;;31.15;100.00
31239;BME280;17871;31.584;74.450;2023-07-09T12:50:32;97429.34;;;31.23;99.48
31239;BME280;17871;31.584;74.450;2023-07-09T12:53:17;97432.81;;;31.14;100.00
31239;BME280;17871;31.584;74.450;2023-07-09T12:55:47;97430.88;;;31.16;99.97
31239;BME280;17871;31.584;74.450;2023-07-09T13:00:52;97442.13;;;30.99;100.00
31239;BME280;17871;31.584;74.450;2023-07-09T13:03:31;97438.53;;;31.00;100.00
31239;BME280;17871;31.584;74.450;2023-07-09T13:06:04;97440.31;;;31.00;100.00
31239;BME280;17871;31.584;74.450;2023-07-09T13:08:43;97444.63;;;31.01;100.00
31239;BME280;17871;31.584;74.450;2023-07-09T13:11:16;97442.00;;;31.01;100.00
31239;BME280;17871;31.584;74.450;2023-07-09T13:14:04;97442.84;;;31.01;100.00
31239;BME280;17871;31.584;74.450;2023-07-09T13:16:40;97442.84;;;31.01;100.00
31239;BME280;17871;31.584;74.450;2023-07-09T13:19:13;97443.59;;;30.82;100.00
31239;BME280;17871;31.584;74.450;2023-07-09T13:21:42;97451.41;;;30.94;100.00
31239;BME280;17871;31.584;74.450;2023-07-09T13:24:32;97452.84;;;30.98;100.00
31239;BME280;17871;31.584;74.450;2023-07-09T13:27:02;97451.41;;;30.74;100.00
31239;BME280;17871;31.584;74.450;2023-07-09T13:29:33;97447.53;;;30.78;100.00
31239;BME280;17871;31.584;74.450;2023-07-09T13:32:08;97445.97;;;30.76;100.00
31239;BME280;17871;31.584;74.450;2023-07-09T13:34:42;97458.34;;;30.66;100.00
31239;BME280;17871;31.584;74.450;2023-07-09T13:37:16;97463.75;;;30.83;100.00
31239;BME280;17871;31.584;74.450;2023-07-09T13:39:45;97460.00;;;30.76;100.00
31239;BME280;17871;31.584;74.450;2023-07-09T13:42:15;97459.88;;;30.78;100.00
31239;BME280;17871;31.584;74.450;2023-07-09T13:44:46;97465.56;;;30.73;100.00
31239;BME280;17871;31.584;74.450;2023-07-09T13:47:18;97474.84;;;30.68;100.00
31239;BME280;17871;31.584;74.450;2023-07-09T13:49:48;97476.94;;;30.64;100.00
31239;BME280;17871;31.584;74.450;2023-07-09T13:52:22;97484.56;;;30.67;100.00
31239;BME280;17871;31.584;74.450;2023-07-09T13:54:54;97488.72;;;30.60;100.00
31239;BME280;17871;31.584;74.450;2023-07-09T13:57:24;97486.22;;;30.49;100.00
31239;BME280;17871;31.584;74.450;2023-07-09T13:59:53;97484.81;;;30.55;100.00
31239;BME280;17871;31.584;74.450;2023-07-09T14:02:30;97487.72;;;30.52;100.00
31239;BME280;17871;31.584;74.450;2023-07-09T14:05:04;97481.72;;;30.40;100.00